N658KP KLMT-KKLS
Flight info
| Callsign | N658KP |
|---|---|
| Flight time | 1h 27m |
| Altitude | 10000 |
| Route | OLEBY V122 OED V23 EUG V481 CVO V495 UBG V165 LOATH |
| Aircraft | C310/L-SDFGR/S |
Departure
| Time | 2026-05-06 00:09 |
|---|---|
| Airport | Crater Lake-Klamath Regional Airport (KLMT) |
Arrival
| Time | 2026-05-06 01:37 |
|---|---|
| Airport | Southwest Washington Regional Airport (KKLS) |
| Time | Latitude | Longitude | Altitude | Speed | Heading |
|---|---|---|---|---|---|
| 2026-05-05 23:44 | 42.16627 | -121.74356 | 4091 ft | 0 kts | 261° |
| 2026-05-06 00:00 | 42.16627 | -121.74361 | 4091 ft | 1 kts | 286° |
| 2026-05-06 00:00 | 42.16638 | -121.74365 | 4091 ft | 2 kts | 45° |
| 2026-05-06 00:00 | 42.16635 | -121.74329 | 4091 ft | 5 kts | 102° |
| 2026-05-06 00:01 | 42.16625 | -121.74266 | 4091 ft | 7 kts | 104° |
| 2026-05-06 00:01 | 42.16577 | -121.74233 | 4091 ft | 8 kts | 180° |
| 2026-05-06 00:01 | 42.16517 | -121.74233 | 4091 ft | 8 kts | 179° |
| 2026-05-06 00:01 | 42.16445 | -121.74232 | 4091 ft | 10 kts | 180° |
| 2026-05-06 00:02 | 42.16374 | -121.74207 | 4091 ft | 11 kts | 119° |
| 2026-05-06 00:02 | 42.16357 | -121.74094 | 4091 ft | 12 kts | 99° |
| 2026-05-06 00:02 | 42.16294 | -121.74016 | 4091 ft | 13 kts | 159° |
| 2026-05-06 00:02 | 42.16201 | -121.73967 | 4091 ft | 14 kts | 158° |
| 2026-05-06 00:03 | 42.16101 | -121.73914 | 4091 ft | 15 kts | 157° |
| 2026-05-06 00:03 | 42.16000 | -121.73859 | 4091 ft | 15 kts | 159° |
| 2026-05-06 00:03 | 42.15896 | -121.73804 | 4091 ft | 16 kts | 158° |
| 2026-05-06 00:03 | 42.15789 | -121.73744 | 4091 ft | 17 kts | 158° |
| 2026-05-06 00:04 | 42.15677 | -121.73689 | 4091 ft | 17 kts | 159° |
| 2026-05-06 00:04 | 42.15564 | -121.73625 | 4091 ft | 17 kts | 157° |
| 2026-05-06 00:04 | 42.15448 | -121.73566 | 4091 ft | 18 kts | 158° |
| 2026-05-06 00:04 | 42.15331 | -121.73502 | 4091 ft | 18 kts | 159° |
| 2026-05-06 00:05 | 42.15146 | -121.73352 | 4095 ft | 12 kts | 75° |
| 2026-05-06 00:05 | 42.15177 | -121.73243 | 4095 ft | 7 kts | 71° |
| 2026-05-06 00:05 | 42.15179 | -121.73234 | 4095 ft | 0 kts | 67° |
| 2026-05-06 00:08 | 42.15181 | -121.73230 | 4095 ft | 1 kts | 69° |
| 2026-05-06 00:08 | 42.15190 | -121.73197 | 4095 ft | 5 kts | 65° |
| 2026-05-06 00:08 | 42.15229 | -121.73144 | 4093 ft | 11 kts | 5° |
| 2026-05-06 00:08 | 42.15396 | -121.73229 | 4092 ft | 58 kts | 337° |
| 2026-05-06 00:09 | 42.15975 | -121.73527 | 4156 ft | 107 kts | 337° |
| 2026-05-06 00:09 | 42.16742 | -121.73930 | 4459 ft | 123 kts | 334° |
| 2026-05-06 00:09 | 42.17567 | -121.74438 | 4973 ft | 126 kts | 322° |
| 2026-05-06 00:09 | 42.17963 | -121.75446 | 5427 ft | 124 kts | 278° |
| 2026-05-06 00:10 | 42.18010 | -121.76588 | 5824 ft | 123 kts | 277° |
| 2026-05-06 00:10 | 42.18059 | -121.77771 | 6218 ft | 125 kts | 277° |
| 2026-05-06 00:10 | 42.18120 | -121.78946 | 6591 ft | 125 kts | 278° |
| 2026-05-06 00:10 | 42.18190 | -121.80104 | 6979 ft | 126 kts | 279° |
| 2026-05-06 00:11 | 42.18267 | -121.81252 | 7548 ft | 125 kts | 279° |
| 2026-05-06 00:11 | 42.18352 | -121.82427 | 8028 ft | 125 kts | 279° |
| 2026-05-06 00:11 | 42.18442 | -121.83603 | 8317 ft | 128 kts | 279° |
| 2026-05-06 00:11 | 42.18541 | -121.84793 | 8775 ft | 129 kts | 279° |
| 2026-05-06 00:12 | 42.18639 | -121.86002 | 9118 ft | 132 kts | 279° |
| 2026-05-06 00:12 | 42.18743 | -121.87227 | 9505 ft | 135 kts | 279° |
| 2026-05-06 00:12 | 42.18850 | -121.88488 | 9850 ft | 136 kts | 279° |
| 2026-05-06 00:12 | 42.18959 | -121.89760 | 10196 ft | 138 kts | 279° |
| 2026-05-06 00:13 | 42.19072 | -121.91060 | 10526 ft | 141 kts | 280° |
| 2026-05-06 00:13 | 42.19189 | -121.92390 | 10856 ft | 144 kts | 281° |
| 2026-05-06 00:13 | 42.19307 | -121.93726 | 11180 ft | 147 kts | 281° |
| 2026-05-06 00:13 | 42.19430 | -121.95115 | 11510 ft | 149 kts | 281° |
| 2026-05-06 00:14 | 42.19554 | -121.96503 | 11835 ft | 152 kts | 281° |
| 2026-05-06 00:14 | 42.19688 | -121.97982 | 11988 ft | 166 kts | 281° |
| 2026-05-06 00:14 | 42.19836 | -121.99590 | 12009 ft | 182 kts | 281° |
| 2026-05-06 00:14 | 42.19993 | -122.01326 | 12008 ft | 191 kts | 281° |
| 2026-05-06 00:15 | 42.20155 | -122.03131 | 12006 ft | 197 kts | 281° |
| 2026-05-06 00:15 | 42.20341 | -122.05004 | 12002 ft | 201 kts | 285° |
| 2026-05-06 00:15 | 42.20626 | -122.06849 | 12003 ft | 204 kts | 286° |
| 2026-05-06 00:15 | 42.20919 | -122.08725 | 12003 ft | 206 kts | 285° |
| 2026-05-06 00:16 | 42.21212 | -122.10621 | 12002 ft | 208 kts | 285° |
| 2026-05-06 00:16 | 42.21507 | -122.12531 | 12001 ft | 209 kts | 285° |
| 2026-05-06 00:16 | 42.21805 | -122.14468 | 12001 ft | 209 kts | 285° |
| 2026-05-06 00:16 | 42.22098 | -122.16369 | 12001 ft | 210 kts | 285° |
| 2026-05-06 00:17 | 42.22399 | -122.18322 | 12001 ft | 210 kts | 285° |
| 2026-05-06 00:17 | 42.22695 | -122.20244 | 12006 ft | 211 kts | 285° |
| 2026-05-06 00:17 | 42.22993 | -122.22179 | 12001 ft | 211 kts | 285° |
| 2026-05-06 00:17 | 42.23290 | -122.24109 | 12001 ft | 211 kts | 285° |
| 2026-05-06 00:18 | 42.23588 | -122.26038 | 12002 ft | 211 kts | 285° |
| 2026-05-06 00:18 | 42.23987 | -122.27954 | 12000 ft | 208 kts | 295° |
| 2026-05-06 00:18 | 42.24536 | -122.29752 | 12003 ft | 207 kts | 296° |
| 2026-05-06 00:18 | 42.25124 | -122.31503 | 12000 ft | 206 kts | 297° |
| 2026-05-06 00:19 | 42.25746 | -122.33267 | 11978 ft | 207 kts | 298° |
| 2026-05-06 00:19 | 42.26383 | -122.35014 | 11973 ft | 206 kts | 299° |
| 2026-05-06 00:19 | 42.27022 | -122.36729 | 11972 ft | 206 kts | 300° |
| 2026-05-06 00:19 | 42.27685 | -122.38432 | 11972 ft | 206 kts | 300° |
| 2026-05-06 00:20 | 42.28354 | -122.40151 | 11973 ft | 206 kts | 300° |
| 2026-05-06 00:20 | 42.29019 | -122.41869 | 11973 ft | 206 kts | 300° |
| 2026-05-06 00:20 | 42.29677 | -122.43572 | 11973 ft | 206 kts | 300° |
| 2026-05-06 00:20 | 42.30340 | -122.45294 | 11973 ft | 206 kts | 300° |
| 2026-05-06 00:21 | 42.31004 | -122.47022 | 11973 ft | 206 kts | 300° |
| 2026-05-06 00:21 | 42.31665 | -122.48743 | 11973 ft | 206 kts | 300° |
| 2026-05-06 00:21 | 42.32326 | -122.50465 | 11973 ft | 207 kts | 300° |
| 2026-05-06 00:21 | 42.32986 | -122.52186 | 11973 ft | 207 kts | 300° |
| 2026-05-06 00:22 | 42.33651 | -122.53921 | 11973 ft | 207 kts | 300° |
| 2026-05-06 00:22 | 42.34307 | -122.55636 | 11973 ft | 207 kts | 300° |
| 2026-05-06 00:22 | 42.34966 | -122.57357 | 11973 ft | 207 kts | 300° |
| 2026-05-06 00:22 | 42.35621 | -122.59070 | 11973 ft | 207 kts | 300° |
| 2026-05-06 00:23 | 42.36288 | -122.60815 | 11973 ft | 207 kts | 300° |
| 2026-05-06 00:23 | 42.36930 | -122.62536 | 11973 ft | 207 kts | 299° |
| 2026-05-06 00:23 | 42.37573 | -122.64269 | 11973 ft | 207 kts | 300° |
| 2026-05-06 00:23 | 42.38231 | -122.66030 | 11972 ft | 207 kts | 299° |
| 2026-05-06 00:24 | 42.38879 | -122.67753 | 11972 ft | 207 kts | 299° |
| 2026-05-06 00:24 | 42.39533 | -122.69482 | 11972 ft | 207 kts | 299° |
| 2026-05-06 00:24 | 42.40187 | -122.71210 | 11972 ft | 207 kts | 299° |
| 2026-05-06 00:24 | 42.40850 | -122.72961 | 11972 ft | 207 kts | 299° |
| 2026-05-06 00:25 | 42.41506 | -122.74689 | 11972 ft | 207 kts | 299° |
| 2026-05-06 00:25 | 42.42164 | -122.76419 | 11972 ft | 206 kts | 299° |
| 2026-05-06 00:25 | 42.42826 | -122.78168 | 11972 ft | 207 kts | 299° |
| 2026-05-06 00:25 | 42.43485 | -122.79905 | 11972 ft | 207 kts | 299° |
| 2026-05-06 00:26 | 42.44142 | -122.81638 | 11972 ft | 207 kts | 299° |
| 2026-05-06 00:26 | 42.44801 | -122.83378 | 11972 ft | 207 kts | 299° |
| 2026-05-06 00:26 | 42.45455 | -122.85104 | 11972 ft | 208 kts | 299° |
| 2026-05-06 00:26 | 42.46114 | -122.86848 | 11972 ft | 208 kts | 299° |
| 2026-05-06 00:27 | 42.46779 | -122.88586 | 11972 ft | 208 kts | 300° |
| 2026-05-06 00:27 | 42.47602 | -122.90162 | 11951 ft | 205 kts | 327° |
| 2026-05-06 00:27 | 42.48879 | -122.90949 | 11973 ft | 202 kts | 342° |
| 2026-05-06 00:27 | 42.50219 | -122.91496 | 11975 ft | 202 kts | 347° |
| 2026-05-06 00:28 | 42.51599 | -122.91939 | 11973 ft | 202 kts | 350° |
| 2026-05-06 00:28 | 42.52967 | -122.92287 | 11972 ft | 202 kts | 352° |
| 2026-05-06 00:28 | 42.54346 | -122.92602 | 11972 ft | 202 kts | 353° |
| 2026-05-06 00:28 | 42.55737 | -122.92898 | 11972 ft | 202 kts | 353° |
| 2026-05-06 00:29 | 42.57114 | -122.93177 | 11972 ft | 202 kts | 353° |
| 2026-05-06 00:29 | 42.58497 | -122.93449 | 11972 ft | 202 kts | 354° |
| 2026-05-06 00:29 | 42.59877 | -122.93714 | 11972 ft | 202 kts | 354° |
| 2026-05-06 00:29 | 42.61268 | -122.93977 | 11972 ft | 202 kts | 354° |
| 2026-05-06 00:30 | 42.62661 | -122.94239 | 11972 ft | 202 kts | 354° |
| 2026-05-06 00:30 | 42.64044 | -122.94498 | 11972 ft | 202 kts | 354° |
| 2026-05-06 00:30 | 42.65442 | -122.94757 | 11972 ft | 202 kts | 354° |
| 2026-05-06 00:30 | 42.66820 | -122.95013 | 11972 ft | 202 kts | 354° |
| 2026-05-06 00:31 | 42.68206 | -122.95270 | 12009 ft | 200 kts | 354° |
| 2026-05-06 00:31 | 42.69567 | -122.95523 | 12067 ft | 198 kts | 354° |
| 2026-05-06 00:31 | 42.70927 | -122.95775 | 12079 ft | 198 kts | 354° |
| 2026-05-06 00:31 | 42.72293 | -122.96027 | 12082 ft | 199 kts | 354° |
| 2026-05-06 00:32 | 42.73674 | -122.96283 | 12082 ft | 200 kts | 354° |
| 2026-05-06 00:32 | 42.75049 | -122.96538 | 12082 ft | 200 kts | 354° |
| 2026-05-06 00:32 | 42.76429 | -122.96793 | 12082 ft | 200 kts | 354° |
| 2026-05-06 00:32 | 42.77794 | -122.97045 | 12082 ft | 200 kts | 354° |
| 2026-05-06 00:33 | 42.79173 | -122.97300 | 12081 ft | 200 kts | 354° |
| 2026-05-06 00:33 | 42.80537 | -122.97553 | 12081 ft | 199 kts | 353° |
| 2026-05-06 00:33 | 42.81911 | -122.97808 | 12081 ft | 199 kts | 353° |
| 2026-05-06 00:33 | 42.83280 | -122.98062 | 12081 ft | 199 kts | 353° |
| 2026-05-06 00:34 | 42.84655 | -122.98318 | 12081 ft | 199 kts | 353° |
| 2026-05-06 00:34 | 42.86028 | -122.98573 | 12081 ft | 199 kts | 353° |
| 2026-05-06 00:34 | 42.87385 | -122.98826 | 12081 ft | 198 kts | 353° |
| 2026-05-06 00:34 | 42.88755 | -122.99081 | 12081 ft | 198 kts | 353° |
| 2026-05-06 00:35 | 42.90111 | -122.99332 | 12081 ft | 198 kts | 353° |
| 2026-05-06 00:35 | 42.91474 | -122.99586 | 12081 ft | 198 kts | 353° |
| 2026-05-06 00:35 | 42.92847 | -122.99842 | 12081 ft | 198 kts | 353° |
| 2026-05-06 00:35 | 42.94220 | -123.00098 | 12081 ft | 198 kts | 353° |
| 2026-05-06 00:36 | 42.95585 | -123.00352 | 12076 ft | 199 kts | 353° |
| 2026-05-06 00:36 | 42.96959 | -123.00608 | 12036 ft | 200 kts | 353° |
| 2026-05-06 00:36 | 42.98337 | -123.00864 | 12028 ft | 200 kts | 353° |
| 2026-05-06 00:36 | 42.99717 | -123.01122 | 12026 ft | 200 kts | 353° |
| 2026-05-06 00:37 | 43.01073 | -123.01375 | 12026 ft | 199 kts | 353° |
| 2026-05-06 00:37 | 43.02456 | -123.01633 | 12026 ft | 199 kts | 353° |
| 2026-05-06 00:37 | 43.03819 | -123.01888 | 12026 ft | 199 kts | 353° |
| 2026-05-06 00:37 | 43.05179 | -123.02142 | 12026 ft | 199 kts | 353° |
| 2026-05-06 00:38 | 43.06563 | -123.02401 | 12026 ft | 199 kts | 353° |
| 2026-05-06 00:38 | 43.07926 | -123.02656 | 12026 ft | 199 kts | 353° |
| 2026-05-06 00:38 | 43.09287 | -123.02911 | 12026 ft | 199 kts | 353° |
| 2026-05-06 00:38 | 43.10675 | -123.03171 | 12027 ft | 199 kts | 353° |
| 2026-05-06 00:39 | 43.12048 | -123.03428 | 12028 ft | 199 kts | 353° |
| 2026-05-06 00:39 | 43.13437 | -123.03688 | 12028 ft | 199 kts | 353° |
| 2026-05-06 00:39 | 43.14811 | -123.03945 | 12028 ft | 199 kts | 353° |
| 2026-05-06 00:39 | 43.16203 | -123.04207 | 12028 ft | 200 kts | 353° |
| 2026-05-06 00:40 | 43.17573 | -123.04463 | 12028 ft | 200 kts | 353° |
| 2026-05-06 00:40 | 43.18961 | -123.04724 | 12028 ft | 200 kts | 353° |
| 2026-05-06 00:40 | 43.20343 | -123.04984 | 12028 ft | 200 kts | 353° |
| 2026-05-06 00:40 | 43.21721 | -123.05241 | 12025 ft | 200 kts | 353° |
| 2026-05-06 00:41 | 43.23095 | -123.05500 | 12028 ft | 200 kts | 353° |
| 2026-05-06 00:41 | 43.24491 | -123.05763 | 12028 ft | 200 kts | 353° |
| 2026-05-06 00:41 | 43.25867 | -123.06020 | 12027 ft | 200 kts | 353° |
| 2026-05-06 00:41 | 43.27244 | -123.06280 | 12028 ft | 200 kts | 353° |
| 2026-05-06 00:42 | 43.28625 | -123.06539 | 12028 ft | 200 kts | 353° |
| 2026-05-06 00:42 | 43.29996 | -123.06798 | 12027 ft | 200 kts | 353° |
| 2026-05-06 00:42 | 43.31372 | -123.07056 | 12027 ft | 200 kts | 353° |
| 2026-05-06 00:42 | 43.32754 | -123.07318 | 12027 ft | 200 kts | 353° |
| 2026-05-06 00:43 | 43.34132 | -123.07578 | 12027 ft | 200 kts | 353° |
| 2026-05-06 00:43 | 43.35515 | -123.07840 | 12027 ft | 200 kts | 353° |
| 2026-05-06 00:43 | 43.36883 | -123.08099 | 12027 ft | 200 kts | 353° |
| 2026-05-06 00:43 | 43.38255 | -123.08358 | 12027 ft | 200 kts | 353° |
| 2026-05-06 00:44 | 43.39630 | -123.08618 | 12027 ft | 200 kts | 353° |
| 2026-05-06 00:44 | 43.41014 | -123.08880 | 12027 ft | 200 kts | 353° |
| 2026-05-06 00:44 | 43.42372 | -123.09137 | 12027 ft | 200 kts | 353° |
| 2026-05-06 00:44 | 43.43752 | -123.09398 | 12027 ft | 199 kts | 353° |
| 2026-05-06 00:45 | 43.45134 | -123.09660 | 12027 ft | 199 kts | 353° |
| 2026-05-06 00:45 | 43.46502 | -123.09919 | 12027 ft | 199 kts | 353° |
| 2026-05-06 00:45 | 43.47869 | -123.10178 | 12027 ft | 199 kts | 353° |
| 2026-05-06 00:45 | 43.49239 | -123.10438 | 12027 ft | 199 kts | 353° |
| 2026-05-06 00:46 | 43.50614 | -123.10699 | 12027 ft | 199 kts | 353° |
| 2026-05-06 00:46 | 43.52000 | -123.10962 | 12027 ft | 199 kts | 353° |
| 2026-05-06 00:46 | 43.53365 | -123.11221 | 12027 ft | 199 kts | 353° |
| 2026-05-06 00:46 | 43.54747 | -123.11483 | 12027 ft | 199 kts | 353° |
| 2026-05-06 00:47 | 43.56118 | -123.11744 | 12047 ft | 198 kts | 353° |
| 2026-05-06 00:47 | 43.57470 | -123.12001 | 12053 ft | 198 kts | 353° |
| 2026-05-06 00:47 | 43.58842 | -123.12262 | 12054 ft | 199 kts | 353° |
| 2026-05-06 00:47 | 43.60211 | -123.12522 | 12054 ft | 199 kts | 353° |
| 2026-05-06 00:48 | 43.61576 | -123.12782 | 12054 ft | 199 kts | 353° |
| 2026-05-06 00:48 | 43.62943 | -123.13042 | 12054 ft | 199 kts | 353° |
| 2026-05-06 00:48 | 43.64320 | -123.13305 | 12054 ft | 199 kts | 353° |
| 2026-05-06 00:48 | 43.65710 | -123.13570 | 12054 ft | 199 kts | 353° |
| 2026-05-06 00:49 | 43.67092 | -123.13834 | 12054 ft | 199 kts | 353° |
| 2026-05-06 00:49 | 43.68490 | -123.14101 | 12054 ft | 199 kts | 353° |
| 2026-05-06 00:49 | 43.69912 | -123.14372 | 12054 ft | 199 kts | 353° |
| 2026-05-06 00:49 | 43.71312 | -123.14639 | 12054 ft | 199 kts | 353° |
| 2026-05-06 00:50 | 43.72702 | -123.14905 | 12054 ft | 199 kts | 353° |
| 2026-05-06 00:50 | 43.74089 | -123.15170 | 12054 ft | 199 kts | 353° |
| 2026-05-06 00:50 | 43.75476 | -123.15435 | 12054 ft | 199 kts | 352° |
| 2026-05-06 00:50 | 43.76861 | -123.15698 | 12054 ft | 199 kts | 352° |
| 2026-05-06 00:51 | 43.78225 | -123.15960 | 12054 ft | 199 kts | 352° |
| 2026-05-06 00:51 | 43.79621 | -123.16228 | 12054 ft | 199 kts | 352° |
| 2026-05-06 00:51 | 43.81027 | -123.16497 | 12006 ft | 201 kts | 352° |
| 2026-05-06 00:51 | 43.82414 | -123.16763 | 11992 ft | 201 kts | 352° |
| 2026-05-06 00:52 | 43.83820 | -123.17033 | 11989 ft | 200 kts | 352° |
| 2026-05-06 00:52 | 43.85194 | -123.17297 | 11989 ft | 200 kts | 352° |
| 2026-05-06 00:52 | 43.86565 | -123.17560 | 11989 ft | 199 kts | 352° |
| 2026-05-06 00:52 | 43.87963 | -123.17828 | 11989 ft | 199 kts | 352° |
| 2026-05-06 00:53 | 43.89341 | -123.18094 | 11989 ft | 199 kts | 352° |
| 2026-05-06 00:53 | 43.90718 | -123.18359 | 11989 ft | 199 kts | 352° |
| 2026-05-06 00:53 | 43.92098 | -123.18624 | 11989 ft | 199 kts | 352° |
| 2026-05-06 00:53 | 43.93499 | -123.18847 | 11990 ft | 199 kts | 354° |
| 2026-05-06 00:54 | 43.94904 | -123.19083 | 11989 ft | 199 kts | 353° |
| 2026-05-06 00:54 | 43.96316 | -123.19328 | 11996 ft | 198 kts | 353° |
| 2026-05-06 00:54 | 43.97710 | -123.19575 | 11998 ft | 198 kts | 353° |
| 2026-05-06 00:54 | 43.99085 | -123.19830 | 11998 ft | 199 kts | 352° |
| 2026-05-06 00:55 | 44.00465 | -123.20093 | 11998 ft | 199 kts | 352° |
| 2026-05-06 00:55 | 44.01818 | -123.20353 | 11998 ft | 199 kts | 352° |
| 2026-05-06 00:55 | 44.03211 | -123.20622 | 11998 ft | 199 kts | 352° |
| 2026-05-06 00:55 | 44.04657 | -123.20901 | 11998 ft | 199 kts | 352° |
| 2026-05-06 00:56 | 44.06055 | -123.21172 | 11998 ft | 199 kts | 352° |
| 2026-05-06 00:56 | 44.07509 | -123.21453 | 11998 ft | 199 kts | 352° |
| 2026-05-06 00:56 | 44.08916 | -123.21725 | 11998 ft | 199 kts | 352° |
| 2026-05-06 00:56 | 44.10303 | -123.21994 | 11999 ft | 199 kts | 352° |
| 2026-05-06 00:57 | 44.11698 | -123.22265 | 12000 ft | 199 kts | 352° |
| 2026-05-06 00:57 | 44.13060 | -123.22527 | 12000 ft | 199 kts | 352° |
| 2026-05-06 00:57 | 44.14427 | -123.22786 | 12000 ft | 199 kts | 352° |
| 2026-05-06 00:57 | 44.15873 | -123.23057 | 12000 ft | 199 kts | 352° |
| 2026-05-06 00:58 | 44.17226 | -123.23309 | 12000 ft | 199 kts | 352° |
| 2026-05-06 00:58 | 44.18610 | -123.23567 | 12000 ft | 199 kts | 353° |
| 2026-05-06 00:58 | 44.19970 | -123.23820 | 12000 ft | 199 kts | 353° |
| 2026-05-06 00:58 | 44.21358 | -123.24078 | 12000 ft | 199 kts | 353° |
| 2026-05-06 00:59 | 44.22722 | -123.24332 | 12000 ft | 199 kts | 353° |
| 2026-05-06 00:59 | 44.24103 | -123.24590 | 12000 ft | 199 kts | 353° |
| 2026-05-06 00:59 | 44.25481 | -123.24847 | 11999 ft | 199 kts | 353° |
| 2026-05-06 00:59 | 44.26869 | -123.25108 | 12002 ft | 199 kts | 353° |
| 2026-05-06 01:00 | 44.28229 | -123.25362 | 12000 ft | 199 kts | 353° |
| 2026-05-06 01:00 | 44.29621 | -123.25621 | 12000 ft | 198 kts | 353° |
| 2026-05-06 01:00 | 44.31000 | -123.25877 | 12000 ft | 198 kts | 353° |
| 2026-05-06 01:00 | 44.32388 | -123.26135 | 12000 ft | 198 kts | 353° |
| 2026-05-06 01:01 | 44.33765 | -123.26392 | 12000 ft | 198 kts | 353° |
| 2026-05-06 01:01 | 44.35157 | -123.26653 | 12000 ft | 198 kts | 353° |
| 2026-05-06 01:01 | 44.36521 | -123.26909 | 12007 ft | 197 kts | 353° |
| 2026-05-06 01:01 | 44.37874 | -123.27169 | 12009 ft | 197 kts | 353° |
| 2026-05-06 01:02 | 44.39233 | -123.27438 | 12008 ft | 197 kts | 353° |
| 2026-05-06 01:02 | 44.40604 | -123.27710 | 12009 ft | 197 kts | 353° |
| 2026-05-06 01:02 | 44.41967 | -123.27975 | 12009 ft | 198 kts | 353° |
| 2026-05-06 01:02 | 44.43331 | -123.28237 | 12009 ft | 198 kts | 353° |
| 2026-05-06 01:03 | 44.44703 | -123.28499 | 12009 ft | 198 kts | 353° |
| 2026-05-06 01:03 | 44.46116 | -123.28767 | 12009 ft | 198 kts | 353° |
| 2026-05-06 01:03 | 44.47538 | -123.29036 | 12009 ft | 198 kts | 353° |
| 2026-05-06 01:03 | 44.48951 | -123.29292 | 12008 ft | 197 kts | 356° |
| 2026-05-06 01:04 | 44.50337 | -123.29063 | 12009 ft | 197 kts | 9° |
| 2026-05-06 01:04 | 44.51689 | -123.28687 | 12008 ft | 197 kts | 12° |
| 2026-05-06 01:04 | 44.53016 | -123.28272 | 12009 ft | 197 kts | 13° |
| 2026-05-06 01:04 | 44.54347 | -123.27805 | 12009 ft | 197 kts | 14° |
| 2026-05-06 01:05 | 44.55682 | -123.27327 | 12009 ft | 197 kts | 14° |
| 2026-05-06 01:05 | 44.57000 | -123.26852 | 12009 ft | 197 kts | 14° |
| 2026-05-06 01:05 | 44.58329 | -123.26371 | 12008 ft | 197 kts | 14° |
| 2026-05-06 01:05 | 44.59693 | -123.25875 | 12008 ft | 197 kts | 14° |
| 2026-05-06 01:06 | 44.61039 | -123.25385 | 12008 ft | 197 kts | 14° |
| 2026-05-06 01:06 | 44.62401 | -123.24889 | 12008 ft | 197 kts | 14° |
| 2026-05-06 01:06 | 44.63770 | -123.24389 | 12008 ft | 198 kts | 14° |
| 2026-05-06 01:06 | 44.65096 | -123.23904 | 12009 ft | 198 kts | 14° |
| 2026-05-06 01:07 | 44.66438 | -123.23414 | 12009 ft | 199 kts | 14° |
| 2026-05-06 01:07 | 44.67796 | -123.22917 | 12008 ft | 199 kts | 14° |
| 2026-05-06 01:07 | 44.69145 | -123.22424 | 12008 ft | 199 kts | 14° |
| 2026-05-06 01:07 | 44.70480 | -123.21934 | 12008 ft | 199 kts | 14° |
| 2026-05-06 01:08 | 44.71818 | -123.21443 | 12008 ft | 200 kts | 14° |
| 2026-05-06 01:08 | 44.73180 | -123.20944 | 12008 ft | 200 kts | 14° |
| 2026-05-06 01:08 | 44.74507 | -123.20458 | 12008 ft | 200 kts | 14° |
| 2026-05-06 01:08 | 44.75855 | -123.19985 | 11997 ft | 200 kts | 14° |
| 2026-05-06 01:09 | 44.77207 | -123.19511 | 11990 ft | 200 kts | 14° |
| 2026-05-06 01:09 | 44.78560 | -123.19029 | 11990 ft | 199 kts | 14° |
| 2026-05-06 01:09 | 44.79890 | -123.18550 | 11990 ft | 199 kts | 14° |
| 2026-05-06 01:09 | 44.81238 | -123.18060 | 11989 ft | 199 kts | 14° |
| 2026-05-06 01:10 | 44.82578 | -123.17572 | 11989 ft | 199 kts | 14° |
| 2026-05-06 01:10 | 44.83928 | -123.17078 | 11989 ft | 199 kts | 14° |
| 2026-05-06 01:10 | 44.85290 | -123.16578 | 11989 ft | 199 kts | 14° |
| 2026-05-06 01:10 | 44.86650 | -123.16077 | 11989 ft | 199 kts | 14° |
| 2026-05-06 01:11 | 44.88012 | -123.15576 | 11989 ft | 198 kts | 14° |
| 2026-05-06 01:11 | 44.89392 | -123.15067 | 11989 ft | 198 kts | 14° |
| 2026-05-06 01:11 | 44.90782 | -123.14555 | 11989 ft | 198 kts | 14° |
| 2026-05-06 01:11 | 44.92166 | -123.14043 | 11989 ft | 198 kts | 14° |
| 2026-05-06 01:12 | 44.93549 | -123.13533 | 11989 ft | 198 kts | 14° |
| 2026-05-06 01:12 | 44.94944 | -123.13005 | 11989 ft | 198 kts | 15° |
| 2026-05-06 01:12 | 44.96335 | -123.12463 | 11989 ft | 198 kts | 15° |
| 2026-05-06 01:12 | 44.97732 | -123.11929 | 11989 ft | 198 kts | 15° |
| 2026-05-06 01:13 | 44.99135 | -123.11398 | 11989 ft | 198 kts | 15° |
| 2026-05-06 01:13 | 45.00545 | -123.10868 | 11989 ft | 198 kts | 15° |
| 2026-05-06 01:13 | 45.01948 | -123.10343 | 11989 ft | 198 kts | 15° |
| 2026-05-06 01:13 | 45.03352 | -123.09819 | 11989 ft | 198 kts | 14° |
| 2026-05-06 01:14 | 45.06137 | -123.08781 | 11823 ft | 203 kts | 14° |
| 2026-05-06 01:14 | 45.07563 | -123.08250 | 11668 ft | 205 kts | 14° |
| 2026-05-06 01:14 | 45.08978 | -123.07724 | 11514 ft | 206 kts | 14° |
| 2026-05-06 01:15 | 45.10412 | -123.07191 | 11359 ft | 207 kts | 14° |
| 2026-05-06 01:15 | 45.11818 | -123.06667 | 11209 ft | 208 kts | 14° |
| 2026-05-06 01:15 | 45.13213 | -123.06148 | 11061 ft | 208 kts | 14° |
| 2026-05-06 01:15 | 45.14598 | -123.05632 | 10914 ft | 208 kts | 14° |
| 2026-05-06 01:16 | 45.15999 | -123.05110 | 10765 ft | 208 kts | 14° |
| 2026-05-06 01:16 | 45.17405 | -123.04585 | 10615 ft | 209 kts | 14° |
| 2026-05-06 01:16 | 45.18812 | -123.04061 | 10465 ft | 209 kts | 14° |
| 2026-05-06 01:16 | 45.20200 | -123.03544 | 10317 ft | 209 kts | 14° |
| 2026-05-06 01:17 | 45.21612 | -123.03017 | 10166 ft | 209 kts | 14° |
| 2026-05-06 01:17 | 45.23012 | -123.02494 | 10017 ft | 209 kts | 14° |
| 2026-05-06 01:17 | 45.24410 | -123.01972 | 9868 ft | 209 kts | 14° |
| 2026-05-06 01:17 | 45.25820 | -123.01444 | 9719 ft | 208 kts | 14° |
| 2026-05-06 01:18 | 45.27233 | -123.00915 | 9567 ft | 208 kts | 14° |
| 2026-05-06 01:18 | 45.28624 | -123.00394 | 9418 ft | 207 kts | 14° |
| 2026-05-06 01:18 | 45.30016 | -122.99873 | 9268 ft | 207 kts | 14° |
| 2026-05-06 01:18 | 45.31395 | -122.99356 | 9120 ft | 206 kts | 14° |
| 2026-05-06 01:19 | 45.32790 | -122.98834 | 8969 ft | 206 kts | 14° |
| 2026-05-06 01:19 | 45.34173 | -122.98315 | 8819 ft | 205 kts | 13° |
| 2026-05-06 01:19 | 45.35573 | -122.98212 | 8672 ft | 203 kts | 356° |
| 2026-05-06 01:19 | 45.36982 | -122.98261 | 8517 ft | 203 kts | 356° |
| 2026-05-06 01:20 | 45.38389 | -122.98350 | 8368 ft | 203 kts | 356° |
| 2026-05-06 01:20 | 45.39793 | -122.98472 | 8219 ft | 202 kts | 356° |
| 2026-05-06 01:20 | 45.41194 | -122.98611 | 8069 ft | 201 kts | 355° |
| 2026-05-06 01:20 | 45.42590 | -122.98761 | 7919 ft | 201 kts | 355° |
| 2026-05-06 01:21 | 45.43972 | -122.98918 | 7769 ft | 200 kts | 355° |
| 2026-05-06 01:21 | 45.45367 | -122.99081 | 7618 ft | 200 kts | 355° |
| 2026-05-06 01:21 | 45.46743 | -122.99246 | 7469 ft | 199 kts | 354° |
| 2026-05-06 01:21 | 45.48105 | -122.99410 | 7319 ft | 198 kts | 354° |
| 2026-05-06 01:22 | 45.49480 | -122.99579 | 7168 ft | 196 kts | 354° |
| 2026-05-06 01:22 | 45.50819 | -122.99744 | 7018 ft | 195 kts | 354° |
| 2026-05-06 01:22 | 45.52160 | -122.99909 | 6868 ft | 194 kts | 354° |
| 2026-05-06 01:22 | 45.53503 | -123.00076 | 6717 ft | 193 kts | 354° |
| 2026-05-06 01:23 | 45.54838 | -123.00242 | 6566 ft | 192 kts | 354° |
| 2026-05-06 01:23 | 45.56168 | -123.00407 | 6415 ft | 191 kts | 354° |
| 2026-05-06 01:23 | 45.57478 | -123.00571 | 6265 ft | 190 kts | 354° |
| 2026-05-06 01:23 | 45.58800 | -123.00745 | 6113 ft | 190 kts | 352° |
| 2026-05-06 01:24 | 45.60100 | -123.00907 | 5965 ft | 189 kts | 354° |
| 2026-05-06 01:24 | 45.61415 | -123.01072 | 5813 ft | 189 kts | 354° |
| 2026-05-06 01:24 | 45.62725 | -123.01235 | 5662 ft | 188 kts | 354° |
| 2026-05-06 01:24 | 45.64050 | -123.01399 | 5508 ft | 187 kts | 354° |
| 2026-05-06 01:25 | 45.65401 | -123.01567 | 5350 ft | 187 kts | 353° |
| 2026-05-06 01:25 | 45.66781 | -123.01739 | 5189 ft | 186 kts | 353° |
| 2026-05-06 01:25 | 45.68140 | -123.01909 | 5029 ft | 186 kts | 353° |
| 2026-05-06 01:25 | 45.69511 | -123.02081 | 4868 ft | 185 kts | 353° |
| 2026-05-06 01:26 | 45.70860 | -123.02251 | 4708 ft | 184 kts | 353° |
| 2026-05-06 01:26 | 45.72218 | -123.02422 | 4547 ft | 184 kts | 353° |
| 2026-05-06 01:26 | 45.73563 | -123.02591 | 4386 ft | 183 kts | 353° |
| 2026-05-06 01:26 | 45.74872 | -123.02756 | 4229 ft | 183 kts | 353° |
| 2026-05-06 01:27 | 45.76200 | -123.02928 | 4066 ft | 184 kts | 355° |
| 2026-05-06 01:27 | 45.77516 | -123.03094 | 3911 ft | 185 kts | 355° |
| 2026-05-06 01:27 | 45.78836 | -123.03257 | 3758 ft | 186 kts | 355° |
| 2026-05-06 01:27 | 45.80161 | -123.03423 | 3603 ft | 187 kts | 355° |
| 2026-05-06 01:28 | 45.81476 | -123.03593 | 3450 ft | 187 kts | 355° |
| 2026-05-06 01:28 | 45.82792 | -123.03760 | 3297 ft | 187 kts | 355° |
| 2026-05-06 01:28 | 45.84127 | -123.03930 | 3142 ft | 187 kts | 355° |
| 2026-05-06 01:28 | 45.85439 | -123.04095 | 2989 ft | 187 kts | 355° |
| 2026-05-06 01:29 | 45.86782 | -123.04265 | 2835 ft | 187 kts | 355° |
| 2026-05-06 01:29 | 45.88118 | -123.04434 | 2675 ft | 187 kts | 356° |
| 2026-05-06 01:29 | 45.89444 | -123.04601 | 2517 ft | 188 kts | 356° |
| 2026-05-06 01:29 | 45.90755 | -123.04768 | 2374 ft | 188 kts | 356° |
| 2026-05-06 01:30 | 45.92058 | -123.04932 | 2232 ft | 188 kts | 356° |
| 2026-05-06 01:30 | 45.93355 | -123.05096 | 2097 ft | 187 kts | 356° |
| 2026-05-06 01:30 | 45.94634 | -123.05258 | 2128 ft | 179 kts | 356° |
| 2026-05-06 01:30 | 45.95853 | -123.05412 | 2140 ft | 175 kts | 356° |
| 2026-05-06 01:31 | 45.97047 | -123.05563 | 2146 ft | 173 kts | 356° |
| 2026-05-06 01:31 | 45.98242 | -123.05714 | 2146 ft | 171 kts | 355° |
| 2026-05-06 01:31 | 45.99437 | -123.05865 | 2149 ft | 170 kts | 355° |
| 2026-05-06 01:31 | 46.00610 | -123.05915 | 2132 ft | 171 kts | 11° |
| 2026-05-06 01:32 | 46.01637 | -123.05082 | 2147 ft | 171 kts | 34° |
| 2026-05-06 01:32 | 46.02560 | -123.03957 | 2031 ft | 177 kts | 41° |
| 2026-05-06 01:32 | 46.03450 | -123.02717 | 1932 ft | 181 kts | 43° |
| 2026-05-06 01:32 | 46.04346 | -123.01438 | 1832 ft | 183 kts | 41° |
| 2026-05-06 01:33 | 46.05272 | -123.00079 | 1719 ft | 183 kts | 43° |
| 2026-05-06 01:33 | 46.06140 | -122.98775 | 1611 ft | 179 kts | 43° |
| 2026-05-06 01:33 | 46.06998 | -122.97475 | 1503 ft | 177 kts | 43° |
| 2026-05-06 01:33 | 46.07836 | -122.96198 | 1391 ft | 176 kts | 44° |
| 2026-05-06 01:34 | 46.08669 | -122.94903 | 1276 ft | 175 kts | 45° |
| 2026-05-06 01:34 | 46.09459 | -122.93581 | 1197 ft | 174 kts | 58° |
| 2026-05-06 01:34 | 46.09612 | -122.91935 | 1285 ft | 167 kts | 103° |
| 2026-05-06 01:34 | 46.08995 | -122.90511 | 1223 ft | 168 kts | 130° |
| 2026-05-06 01:35 | 46.08260 | -122.89314 | 1218 ft | 151 kts | 131° |
| 2026-05-06 01:35 | 46.07768 | -122.88058 | 959 ft | 143 kts | 95° |
| 2026-05-06 01:35 | 46.08094 | -122.86868 | 822 ft | 122 kts | 44° |
| 2026-05-06 01:35 | 46.08761 | -122.86241 | 755 ft | 108 kts | 8° |
| 2026-05-06 01:36 | 46.09376 | -122.86658 | 591 ft | 106 kts | 304° |
| 2026-05-06 01:36 | 46.09837 | -122.87461 | 429 ft | 102 kts | 311° |
| 2026-05-06 01:36 | 46.10359 | -122.88124 | 269 ft | 96 kts | 318° |
| 2026-05-06 01:36 | 46.10855 | -122.88722 | 148 ft | 90 kts | 319° |
| 2026-05-06 01:37 | 46.11329 | -122.89283 | 32 ft | 84 kts | 318° |
| 2026-05-06 01:37 | 46.11701 | -122.89719 | 17 ft | 43 kts | 315° |
| 2026-05-06 01:37 | 46.11855 | -122.89905 | 17 ft | 17 kts | 339° |
| 2026-05-06 01:37 | 46.11896 | -122.89880 | 17 ft | 0 kts | 46° |
| 2026-05-06 01:38 | 46.11905 | -122.89866 | 17 ft | 5 kts | 49° |
| 2026-05-06 01:38 | 46.11930 | -122.89818 | 17 ft | 2 kts | 52° |
| 2026-05-06 01:38 | 46.11946 | -122.89812 | 17 ft | 2 kts | 321° |
| 2026-05-06 01:39 | 46.11951 | -122.89817 | 17 ft | 0 kts | 317° |